createdAt,value
2023-01-11T00:02:03.052Z,1.35
2023-01-11T00:07:05.280Z,0.50
2023-01-11T00:12:08.404Z,1.38
2023-01-11T00:17:10.597Z,1.45
2023-01-11T00:22:12.813Z,1.85
2023-01-11T00:27:14.981Z,2.05
2023-01-11T00:32:17.165Z,1.70
2023-01-11T00:37:19.610Z,0.85
2023-01-11T00:42:40.538Z,1.45
2023-01-11T00:53:00.353Z,1.10
2023-01-11T00:58:02.844Z,1.38
2023-01-11T01:03:04.955Z,1.75
2023-01-11T01:08:07.333Z,2.15
2023-01-11T01:13:37.474Z,1.60
2023-01-11T01:18:39.508Z,0.90
2023-01-11T01:23:41.669Z,1.23
2023-01-11T01:28:43.747Z,1.20
2023-01-11T01:33:45.918Z,1.30
2023-01-11T01:38:47.957Z,1.95
2023-01-11T01:43:54.061Z,1.48
2023-01-11T01:49:12.353Z,1.77
2023-01-11T01:54:23.168Z,1.52
2023-01-11T01:59:29.755Z,1.50
2023-01-11T02:04:37.548Z,1.67
2023-01-11T02:09:47.579Z,1.50
2023-01-11T02:14:50.790Z,1.30
2023-01-11T02:20:08.429Z,1.63
2023-01-11T02:25:23.675Z,1.52
2023-01-11T02:30:34.792Z,1.80
2023-01-11T02:36:01.245Z,1.58
2023-01-11T02:41:16.680Z,1.63
2023-01-11T02:46:24.374Z,0.90
2023-01-11T02:51:34.206Z,1.80
2023-01-11T02:56:43.540Z,1.42
2023-01-11T03:01:55.710Z,1.73
2023-01-11T03:07:23.974Z,1.45
2023-01-11T03:12:57.769Z,1.63
2023-01-11T03:18:20.804Z,0.70
2023-01-11T03:23:27.616Z,1.10
2023-01-11T03:28:38.575Z,1.33
2023-01-11T03:33:52.530Z,1.95
2023-01-11T03:39:01.492Z,0.95
2023-01-11T03:44:08.062Z,1.65
2023-01-11T03:49:18.574Z,2.05
2023-01-11T03:54:26.888Z,1.83
2023-01-11T03:59:29.078Z,1.25
2023-01-11T04:04:31.441Z,1.88
2023-01-11T04:09:33.616Z,2.30
2023-01-11T04:14:35.682Z,1.25
2023-01-11T04:19:37.743Z,1.00
2023-01-11T04:24:39.923Z,1.77
2023-01-11T04:29:42.127Z,1.73
2023-01-11T04:34:44.218Z,1.52
2023-01-11T04:39:46.371Z,1.60
2023-01-11T04:44:50.235Z,1.50
2023-01-11T04:49:52.397Z,2.13
2023-01-11T04:54:54.537Z,1.77
2023-01-11T04:59:56.673Z,2.47
2023-01-11T05:04:58.732Z,1.83
2023-01-11T05:10:00.829Z,2.08
2023-01-11T05:15:02.907Z,1.83
2023-01-11T05:20:05.926Z,2.85
2023-01-11T05:25:08.563Z,1.73
2023-01-11T05:30:12.888Z,1.50
2023-01-11T05:35:14.995Z,2.50
2023-01-11T05:40:17.294Z,2.08
2023-01-11T05:45:35.781Z,1.75
2023-01-11T05:50:37.777Z,2.30
2023-01-11T05:55:39.835Z,2.80
2023-01-11T06:00:41.880Z,2.60
2023-01-11T06:05:46.018Z,2.78
2023-01-11T06:10:55.652Z,2.50
2023-01-11T06:16:02.190Z,2.00
2023-01-11T06:21:05.246Z,2.03
2023-01-11T06:26:09.976Z,2.67
2023-01-11T06:31:12.547Z,2.28
2023-01-11T06:36:15.747Z,1.92
2023-01-11T06:41:17.854Z,2.05
2023-01-11T06:46:20.379Z,2.10
2023-01-11T06:51:22.498Z,1.48
2023-01-11T06:56:24.656Z,1.55
2023-01-11T07:01:27.524Z,2.17
2023-01-11T07:06:32.133Z,2.15
2023-01-11T07:11:39.048Z,2.85
2023-01-11T07:16:41.579Z,2.80
2023-01-11T07:21:43.965Z,3.20
2023-01-11T07:26:45.984Z,1.95
2023-01-11T07:31:48.423Z,2.95
2023-01-11T07:36:50.576Z,2.20
2023-01-11T07:42:11.412Z,2.28
2023-01-11T07:47:13.546Z,3.22
2023-01-11T07:52:15.655Z,3.00
2023-01-11T07:57:17.776Z,3.90
2023-01-11T08:02:19.837Z,2.90
2023-01-11T08:07:21.883Z,2.08
2023-01-11T08:12:42.381Z,3.30
2023-01-11T08:17:44.470Z,2.67
2023-01-11T08:22:48.312Z,2.55
2023-01-11T08:27:50.514Z,2.63
2023-01-11T08:32:52.544Z,3.30
2023-01-11T08:37:54.738Z,3.22
2023-01-11T08:42:57.718Z,2.80
2023-01-11T08:48:00.509Z,2.65
2023-01-11T08:53:02.553Z,2.90
2023-01-11T08:58:04.658Z,2.53
2023-01-11T09:03:06.911Z,3.00
2023-01-11T09:08:09.467Z,2.53
2023-01-11T09:13:11.592Z,2.17
2023-01-11T09:18:14.538Z,2.50
2023-01-11T09:23:16.573Z,2.28
2023-01-11T09:28:18.740Z,3.30
2023-01-11T09:33:20.897Z,3.20
2023-01-11T09:38:25.347Z,2.90
2023-01-11T09:43:30.373Z,2.95
2023-01-11T09:48:44.574Z,1.88
2023-01-11T09:53:52.443Z,2.70
2023-01-11T09:59:06.558Z,2.75
2023-01-11T10:04:33.393Z,2.45
2023-01-11T10:18:29.965Z,3.10
2023-01-11T10:21:02.104Z,2.55
2023-01-11T10:26:13.146Z,2.38
2023-01-11T10:31:37.820Z,2.28
2023-01-11T10:37:33.758Z,3.25
2023-01-11T10:42:46.723Z,3.17
2023-01-11T10:48:01.560Z,3.35
2023-01-11T10:53:17.141Z,2.72
2023-01-11T10:58:26.621Z,2.40
2023-01-11T11:04:04.041Z,2.22
2023-01-11T11:09:35.309Z,2.78
2023-01-11T11:14:43.250Z,2.55
2023-01-11T11:19:45.379Z,2.35
2023-01-11T11:25:04.039Z,2.67
2023-01-11T11:30:11.642Z,2.22
2023-01-11T11:35:45.775Z,2.92
2023-01-11T11:40:58.259Z,2.67
2023-01-11T11:46:03.061Z,2.55
2023-01-11T11:51:08.151Z,2.33
2023-01-11T11:56:29.403Z,2.22
2023-01-11T12:06:33.804Z,2.53
2023-01-11T12:11:42.154Z,2.78
2023-01-11T12:16:45.963Z,2.17
2023-01-11T12:21:48.045Z,2.15
2023-01-11T12:27:16.627Z,2.42
2023-01-11T12:32:37.378Z,2.55
2023-01-11T12:37:39.368Z,2.38
2023-01-11T12:43:25.982Z,2.28
2023-01-11T12:48:43.724Z,2.05
2023-01-11T12:54:27.525Z,2.60
2023-01-11T12:59:32.503Z,2.38
2023-01-11T13:05:05.528Z,2.25
2023-01-11T13:10:29.968Z,2.78
2023-01-11T13:15:55.756Z,2.10
2023-01-11T13:21:10.072Z,2.83
2023-01-11T13:26:29.733Z,3.47
2023-01-11T13:31:35.681Z,2.75
2023-01-11T13:36:44.136Z,2.63
2023-01-11T13:41:51.419Z,2.45
2023-01-11T13:47:09.384Z,3.15
2023-01-11T13:52:14.941Z,2.97
2023-01-11T13:57:54.662Z,1.67
2023-01-11T14:03:15.341Z,2.35
2023-01-11T14:08:44.218Z,1.23
2023-01-11T14:14:13.423Z,2.20
2023-01-11T14:19:23.234Z,2.20
2023-01-11T14:24:28.949Z,2.78
2023-01-11T14:29:45.245Z,1.55
2023-01-11T14:35:28.537Z,2.17
2023-01-11T14:40:51.705Z,2.05
2023-01-11T14:46:05.944Z,2.55
2023-01-11T14:51:33.097Z,2.22
2023-01-11T14:56:44.972Z,1.73
2023-01-11T15:07:30.533Z,2.17
2023-01-11T15:12:38.677Z,2.95
2023-01-11T15:18:00.627Z,1.75
2023-01-11T15:23:05.251Z,2.30
2023-01-11T15:28:47.528Z,1.40
2023-01-11T15:33:54.584Z,1.92
2023-01-11T15:39:05.833Z,2.13
2023-01-11T15:44:28.603Z,2.10
2023-01-11T15:49:58.540Z,2.15
2023-01-11T15:55:48.328Z,2.78
2023-01-11T16:01:22.881Z,2.78
2023-01-11T16:06:40.240Z,2.50
2023-01-11T16:11:54.834Z,2.88
2023-01-11T16:16:57.960Z,1.60
2023-01-11T16:22:05.600Z,1.70
2023-01-11T16:27:09.387Z,2.75
2023-01-11T16:32:22.058Z,2.47
2023-01-11T16:37:42.656Z,3.10
2023-01-11T16:42:54.677Z,2.75
2023-01-11T16:48:05.948Z,2.90
2023-01-11T16:53:13.161Z,1.60
2023-01-11T16:58:28.058Z,1.90
2023-01-11T17:03:35.530Z,2.58
2023-01-11T17:08:38.994Z,2.90
2023-01-11T17:14:20.031Z,2.28
2023-01-11T17:19:26.406Z,2.63
2023-01-11T17:24:29.006Z,2.90
2023-01-11T17:29:39.273Z,2.08
2023-01-11T17:34:43.048Z,2.77
2023-01-11T17:39:55.483Z,2.15
2023-01-11T17:45:13.824Z,2.60
2023-01-11T17:50:27.955Z,1.88
2023-01-11T17:55:30.592Z,3.05
2023-01-11T18:00:32.779Z,1.50
2023-01-11T18:05:35.089Z,2.30
2023-01-11T18:10:40.381Z,1.98
2023-01-11T18:15:47.721Z,2.40
2023-01-11T18:20:49.773Z,2.10
2023-01-11T18:26:27.468Z,2.63
2023-01-11T18:31:29.800Z,2.28
2023-01-11T18:36:31.967Z,1.50
2023-01-11T18:41:58.259Z,2.38
2023-01-11T18:47:00.316Z,1.55
2023-01-11T18:52:02.386Z,1.85
2023-01-11T18:57:04.717Z,1.45
2023-01-11T19:02:23.268Z,1.40
2023-01-11T19:07:26.376Z,1.35
2023-01-11T19:12:28.681Z,1.30
2023-01-11T19:17:31.780Z,1.48
2023-01-11T19:22:33.868Z,1.38
2023-01-11T19:27:37.265Z,1.45
2023-01-11T19:32:39.416Z,1.92
2023-01-11T19:37:41.474Z,1.30
2023-01-11T19:42:43.572Z,1.40
2023-01-11T19:47:47.155Z,1.23
2023-01-11T19:52:49.524Z,1.00
2023-01-11T19:57:51.688Z,1.92
2023-01-11T20:02:53.907Z,1.77
2023-01-11T20:07:56.044Z,0.70
2023-01-11T20:12:58.156Z,1.17
2023-01-11T20:18:01.111Z,1.45
2023-01-11T20:23:03.174Z,1.63
2023-01-11T20:28:05.218Z,1.42
2023-01-11T20:33:10.153Z,1.58
2023-01-11T20:38:12.205Z,1.60
2023-01-11T20:43:14.345Z,1.65
2023-01-11T20:48:16.479Z,1.50
2023-01-11T20:53:18.623Z,1.50
2023-01-11T20:58:20.808Z,1.40
2023-01-11T21:03:24.575Z,0.73
2023-01-11T21:08:27.060Z,1.00
2023-01-11T21:13:29.120Z,1.98
2023-01-11T21:18:31.293Z,1.92
2023-01-11T21:23:34.134Z,1.98
2023-01-11T21:28:36.205Z,1.38
2023-01-11T21:33:39.329Z,2.03
2023-01-11T21:38:41.458Z,1.35
2023-01-11T21:43:44.912Z,2.20
2023-01-11T21:48:47.035Z,1.70
2023-01-11T21:53:49.165Z,1.90
2023-01-11T21:58:51.827Z,1.35
2023-01-11T22:03:54.025Z,1.45
2023-01-11T22:08:56.125Z,2.10
2023-01-11T22:13:59.174Z,2.03
2023-01-11T22:19:02.803Z,1.60
2023-01-11T22:24:07.780Z,1.30
2023-01-11T22:29:17.065Z,1.80
2023-01-11T22:34:19.647Z,1.48
2023-01-11T22:39:21.763Z,0.77
2023-01-11T22:44:24.101Z,1.90
2023-01-11T22:49:26.649Z,1.42
2023-01-11T22:54:28.835Z,1.35
2023-01-11T22:59:30.971Z,1.35
2023-01-11T23:04:35.944Z,1.55
2023-01-11T23:09:38.002Z,1.30
2023-01-11T23:14:41.182Z,0.75
2023-01-11T23:19:44.046Z,1.45
2023-01-11T23:24:46.150Z,1.98
2023-01-11T23:29:48.216Z,1.27
2023-01-11T23:34:50.269Z,1.60
2023-01-11T23:39:52.397Z,1.80
2023-01-11T23:44:55.632Z,1.40
2023-01-11T23:50:02.590Z,1.70
2023-01-11T23:55:05.776Z,1.55
